Time;durP1;ratioP1;P1;durP2;ratioP2;P2;SDS_P1;SDS_P2;PMS_P1;PMS_P2;Temp;Humidity;BMP_temperature;BMP_pressure;BME280_temperature;BME280_humidity;BME280_pressure;Samples;Min_cycle;Max_cycle;Signal;HPM_P1;HPM_P2
2021/01/14 00:01:23;;;;;;;58.90;32.07;;;0.40;93.20;;;;;;5045621;28;20376;-80
2021/01/14 00:03:52;;;;;;;54.77;31.67;;;0.40;93.30;;;;;;5049902;28;20194;-81
2021/01/14 00:06:23;;;;;;;52.60;30.93;;;0.30;93.30;;;;;;5044100;28;20213;-81
2021/01/14 00:08:51;;;;;;;52.60;29.47;;;0.30;93.30;;;;;;5041399;28;20218;-80
2021/01/14 00:11:20;;;;;;;56.17;30.40;;;0.40;93.30;;;;;;5043000;28;20314;-83
2021/01/14 00:13:47;;;;;;;56.87;31.50;;;0.40;93.30;;;;;;5048298;28;20205;-82
2021/01/14 00:16:14;;;;;;;59.80;32.80;;;0.40;93.30;;;;;;5056284;28;20236;-81
2021/01/14 00:18:43;;;;;;;55.33;30.73;;;0.40;93.30;;;;;;5061635;28;20225;-83
2021/01/14 00:21:11;;;;;;;51.93;31.67;;;0.40;93.30;;;;;;5062459;28;20204;-82
2021/01/14 00:23:39;;;;;;;58.17;33.13;;;0.50;93.40;;;;;;5062051;28;20193;-83
2021/01/14 00:26:07;;;;;;;63.37;33.50;;;0.50;93.40;;;;;;5058616;28;20193;-83
2021/01/14 00:28:34;;;;;;;57.90;31.83;;;0.50;93.40;;;;;;5040891;28;20194;-81
2021/01/14 00:31:02;;;;;;;60.50;32.17;;;0.50;93.40;;;;;;5043952;28;20830;-82
2021/01/14 00:33:29;;;;;;;60.03;32.57;;;0.50;93.40;;;;;;5034719;28;20248;-83
2021/01/14 00:35:57;;;;;;;57.80;31.60;;;0.50;93.40;;;;;;5041566;28;20217;-82
2021/01/14 00:38:25;;;;;;;57.43;31.67;;;0.60;93.40;;;;;;5054377;28;20869;-82
2021/01/14 00:40:52;;;;;;;62.20;32.80;;;0.60;93.40;;;;;;5060109;28;20705;-82
2021/01/14 00:43:20;;;;;;;55.83;31.33;;;0.70;93.40;;;;;;5059755;28;20198;-81
2021/01/14 00:45:48;;;;;;;60.47;32.40;;;0.60;93.40;;;;;;5064400;28;20250;-81
2021/01/14 00:48:17;;;;;;;56.40;32.50;;;0.70;93.40;;;;;;5047669;28;20586;-82
2021/01/14 00:50:44;;;;;;;58.77;32.57;;;0.60;93.40;;;;;;5054858;28;20197;-83
2021/01/14 00:53:12;;;;;;;56.07;31.00;;;0.60;93.40;;;;;;5061631;28;20225;-83
2021/01/14 00:55:41;;;;;;;58.23;31.87;;;0.50;93.40;;;;;;5050622;28;20264;-81
2021/01/14 00:58:08;;;;;;;54.97;31.70;;;0.50;93.40;;;;;;5064044;28;20249;-83
2021/01/14 01:00:35;;;;;;;56.80;31.73;;;0.50;93.40;;;;;;5057775;28;20190;-82
2021/01/14 01:03:04;;;;;;;59.37;30.50;;;0.50;93.40;;;;;;5064816;28;20267;-83
2021/01/14 01:05:31;;;;;;;54.57;32.27;;;0.50;93.30;;;;;;5057711;28;20185;-81
2021/01/14 01:07:59;;;;;;;54.20;30.70;;;0.50;93.40;;;;;;5061224;28;20308;-82
2021/01/14 01:10:29;;;;;;;60.27;31.53;;;0.50;93.30;;;;;;5056514;28;20889;-82
2021/01/14 01:12:58;;;;;;;57.30;32.83;;;0.40;93.30;;;;;;5054772;28;20366;-82
2021/01/14 01:15:27;;;;;;;60.20;33.87;;;0.40;93.30;;;;;;5061402;28;20241;-82
2021/01/14 01:17:56;;;;;;;59.83;33.87;;;0.40;93.30;;;;;;5057324;28;20194;-84
2021/01/14 01:20:24;;;;;;;63.70;36.40;;;0.30;93.30;;;;;;5045812;28;20212;-80
2021/01/14 01:22:51;;;;;;;66.53;36.40;;;0.30;93.30;;;;;;5035275;28;20196;-82
2021/01/14 01:25:19;;;;;;;64.80;36.00;;;0.30;93.30;;;;;;5041013;28;20205;-83
2021/01/14 01:27:46;;;;;;;74.90;38.57;;;0.20;93.30;;;;;;5034109;28;20205;-81
2021/01/14 01:30:16;;;;;;;66.23;35.70;;;0.20;93.30;;;;;;5039648;28;20205;-82
2021/01/14 01:32:43;;;;;;;70.83;37.27;;;0.20;93.30;;;;;;5034586;28;20246;-81
2021/01/14 01:35:11;;;;;;;65.80;36.43;;;0.20;93.30;;;;;;5047013;28;20667;-80
2021/01/14 01:37:39;;;;;;;66.83;37.83;;;0.10;93.30;;;;;;5041806;28;20226;-82
2021/01/14 01:40:08;;;;;;;65.50;36.70;;;0.10;93.30;;;;;;5036968;28;20215;-82
2021/01/14 01:42:35;;;;;;;71.63;38.07;;;0.20;93.30;;;;;;5032825;28;20213;-81
2021/01/14 01:45:04;;;;;;;61.70;36.03;;;0.10;93.30;;;;;;5059746;28;20198;-80
2021/01/14 01:47:33;;;;;;;67.33;36.47;;;0.10;93.30;;;;;;5062249;28;20207;-82
2021/01/14 01:50:03;;;;;;;75.03;38.13;;;0.10;93.30;;;;;;5054177;28;20201;-82
2021/01/14 01:52:33;;;;;;;66.17;36.17;;;0.00;93.30;;;;;;5030748;28;20237;-80
2021/01/14 01:55:02;;;;;;;73.27;37.40;;;0.10;93.30;;;;;;5038637;28;20757;-80
2021/01/14 01:57:29;;;;;;;69.77;36.80;;;0.00;93.30;;;;;;5031567;28;20204;-82
2021/01/14 01:59:57;;;;;;;76.20;38.87;;;0.00;93.30;;;;;;5035090;28;20279;-81
2021/01/14 02:02:26;;;;;;;70.07;37.17;;;0.10;93.30;;;;;;5039562;28;20197;-81
2021/01/14 02:04:55;;;;;;;75.57;39.00;;;0.10;93.30;;;;;;5043036;28;20205;-82
2021/01/14 02:07:34;;;;;;;77.97;39.40;;;0.20;93.40;;;;;;5041952;28;20261;-80
2021/01/14 02:10:06;;;;;;;68.30;36.30;;;0.20;93.40;;;;;;5035945;28;20211;-82
2021/01/14 02:12:44;;;;;;;68.03;38.23;;;0.10;93.30;;;;;;5034695;28;20232;-81
2021/01/14 02:15:14;;;;;;;70.30;36.57;;;0.10;93.30;;;;;;5031700;28;20793;-82
2021/01/14 02:17:41;;;;;;;79.47;39.00;;;0.10;93.30;;;;;;5031899;28;20197;-80
2021/01/14 02:20:13;;;;;;;70.97;39.67;;;0.10;93.30;;;;;;5038596;28;20216;-83
2021/01/14 02:22:45;;;;;;;74.43;39.87;;;0.00;93.30;;;;;;5027330;28;20547;-81
2021/01/14 02:25:17;;;;;;;74.57;40.70;;;0.00;93.30;;;;;;5031013;28;20819;-83
2021/01/14 02:27:49;;;;;;;70.27;37.83;;;0.00;93.30;;;;;;5037387;28;20264;-81
2021/01/14 02:30:18;;;;;;;77.50;41.70;;;0.10;93.30;;;;;;5037669;28;20209;-82
2021/01/14 02:32:46;;;;;;;75.93;40.57;;;0.00;93.30;;;;;;5032908;28;20247;-82
2021/01/14 02:35:14;;;;;;;76.33;38.87;;;0.00;93.30;;;;;;5034636;28;20244;-82
2021/01/14 02:37:41;;;;;;;100.50;50.53;;;0.00;93.30;;;;;;5034875;28;21207;-83
2021/01/14 02:40:10;;;;;;;89.80;48.23;;;0.00;93.30;;;;;;5040005;28;20968;-82
2021/01/14 02:42:39;;;;;;;79.37;44.60;;;0.00;93.30;;;;;;5030811;28;20615;-80
2021/01/14 02:45:08;;;;;;;74.50;39.77;;;0.00;93.30;;;;;;5033688;28;20605;-81
2021/01/14 02:47:38;;;;;;;76.03;41.47;;;0.00;93.30;;;;;;5038166;28;20231;-83
2021/01/14 02:50:08;;;;;;;82.13;42.97;;;0.00;93.30;;;;;;5034339;28;20198;-81
2021/01/14 02:52:38;;;;;;;80.47;42.33;;;-0.10;93.30;;;;;;5046832;28;20289;-82
2021/01/14 02:55:07;;;;;;;81.13;42.30;;;0.00;93.30;;;;;;5041550;28;20196;-80
2021/01/14 02:57:35;;;;;;;77.37;41.13;;;0.00;93.30;;;;;;5037259;28;20300;-81
2021/01/14 03:00:03;;;;;;;76.73;41.43;;;-0.10;93.30;;;;;;5045949;28;20599;-82
2021/01/14 03:02:32;;;;;;;77.77;40.53;;;-0.10;93.30;;;;;;5035967;28;20204;-82
2021/01/14 03:05:00;;;;;;;72.40;39.23;;;-0.20;93.20;;;;;;5036965;28;20200;-81
2021/01/14 03:07:27;;;;;;;79.80;40.20;;;-0.20;93.20;;;;;;5054911;28;20291;-80
2021/01/14 03:09:55;;;;;;;78.30;42.73;;;-0.20;93.20;;;;;;5047689;28;20286;-80
2021/01/14 03:12:23;;;;;;;77.90;42.17;;;-0.20;93.20;;;;;;5059426;28;20455;-83
2021/01/14 03:14:51;;;;;;;80.03;42.97;;;-0.20;93.30;;;;;;5064166;28;20209;-83
2021/01/14 03:17:18;;;;;;;85.03;41.87;;;-0.10;93.30;;;;;;5064712;28;20808;-81
2021/01/14 03:19:47;;;;;;;79.60;41.67;;;-0.10;93.30;;;;;;5036649;28;20700;-81
2021/01/14 03:22:14;;;;;;;71.27;39.07;;;-0.10;93.30;;;;;;5036363;28;20212;-82
2021/01/14 03:24:42;;;;;;;75.67;40.47;;;0.00;93.30;;;;;;5035815;28;20374;-82
2021/01/14 03:27:10;;;;;;;74.97;41.40;;;0.10;93.30;;;;;;5036455;28;20943;-82
2021/01/14 03:29:37;;;;;;;76.20;40.90;;;0.10;93.30;;;;;;5031724;28;20198;-82
2021/01/14 03:32:05;;;;;;;76.90;39.77;;;0.00;93.30;;;;;;5037780;28;20233;-83
2021/01/14 03:34:33;;;;;;;77.43;42.07;;;0.00;93.30;;;;;;5035303;28;20684;-79
2021/01/14 03:37:01;;;;;;;70.50;40.40;;;0.00;93.30;;;;;;5032041;28;20200;-82
2021/01/14 03:39:30;;;;;;;82.57;44.40;;;0.00;93.30;;;;;;5039341;28;20259;-81
2021/01/14 03:41:58;;;;;;;72.73;42.40;;;-0.10;93.30;;;;;;5033384;28;20209;-83
2021/01/14 03:44:26;;;;;;;86.23;42.80;;;-0.10;93.30;;;;;;5038860;28;20199;-83
2021/01/14 03:46:53;;;;;;;80.23;41.67;;;-0.10;93.30;;;;;;5035201;28;20721;-83
2021/01/14 03:49:21;;;;;;;78.07;43.37;;;-0.10;93.30;;;;;;5043570;28;20212;-81
2021/01/14 03:51:49;;;;;;;77.37;42.23;;;-0.10;93.30;;;;;;5035996;28;20680;-82
2021/01/14 03:54:21;;;;;;;77.63;41.73;;;-0.10;93.30;;;;;;5036638;28;20212;-83
2021/01/14 03:56:50;;;;;;;79.23;43.63;;;-0.10;93.30;;;;;;5040863;28;20201;-81
2021/01/14 03:59:17;;;;;;;77.30;44.07;;;-0.10;93.30;;;;;;5031382;28;20202;-80
2021/01/14 04:01:44;;;;;;;86.60;46.63;;;-0.10;93.30;;;;;;5037862;28;20693;-83
2021/01/14 04:04:12;;;;;;;202.57;112.70;;;0.00;93.30;;;;;;5032961;28;20202;-81
2021/01/14 04:06:40;;;;;;;87.93;47.27;;;0.10;93.30;;;;;;5038156;28;20351;-80
2021/01/14 04:09:08;;;;;;;91.87;46.43;;;0.20;93.30;;;;;;5039329;28;20776;-81
2021/01/14 04:11:37;;;;;;;88.17;46.53;;;0.20;93.40;;;;;;5033110;28;20259;-82
2021/01/14 04:14:04;;;;;;;90.43;44.70;;;0.20;93.40;;;;;;5033548;28;20247;-81
2021/01/14 04:16:32;;;;;;;82.87;44.73;;;0.20;93.40;;;;;;5037460;28;20194;-81
2021/01/14 04:18:59;;;;;;;84.40;45.33;;;0.20;93.40;;;;;;5033219;28;20965;-81
2021/01/14 04:21:27;;;;;;;83.33;43.67;;;0.20;93.40;;;;;;5034106;28;20197;-81
2021/01/14 04:23:55;;;;;;;84.00;44.47;;;0.20;93.40;;;;;;5028281;28;20228;-81
2021/01/14 04:26:22;;;;;;;85.33;45.30;;;0.20;93.40;;;;;;5037065;28;20723;-81
2021/01/14 04:28:51;;;;;;;88.63;45.60;;;0.20;93.40;;;;;;5035563;28;20375;-80
2021/01/14 04:31:18;;;;;;;80.77;44.00;;;0.20;93.40;;;;;;5036309;28;20223;-84
2021/01/14 04:34:01;;;;;;;86.23;42.07;;;0.10;93.30;;;;;;5031222;28;20227;-82
2021/01/14 04:36:29;;;;;;;81.63;42.60;;;0.20;93.40;;;;;;5047651;28;20197;-82
2021/01/14 04:38:57;;;;;;;80.00;42.87;;;0.20;93.40;;;;;;5051106;28;20210;-82
2021/01/14 04:41:30;;;;;;;80.53;41.97;;;0.20;93.40;;;;;;5057087;28;20201;-81
2021/01/14 04:43:59;;;;;;;82.87;40.43;;;0.20;93.40;;;;;;5059235;28;20199;-82
2021/01/14 04:46:31;;;;;;;76.67;39.70;;;0.20;93.40;;;;;;5037269;28;20193;-82
2021/01/14 04:48:59;;;;;;;77.57;40.60;;;0.20;93.40;;;;;;5031057;28;20623;-81
2021/01/14 04:51:29;;;;;;;84.40;41.17;;;0.20;93.40;;;;;;5035440;28;20201;-81
2021/01/14 04:54:02;;;;;;;86.77;40.63;;;0.30;93.40;;;;;;5036524;28;20472;-80
2021/01/14 04:56:34;;;;;;;79.63;40.70;;;0.30;93.40;;;;;;5042562;28;20284;-80
2021/01/14 04:59:05;;;;;;;85.07;43.40;;;0.40;93.50;;;;;;5039755;28;20213;-82
2021/01/14 05:01:42;;;;;;;85.20;42.33;;;0.30;93.40;;;;;;5043433;28;20223;-82
2021/01/14 05:04:15;;;;;;;86.57;44.33;;;0.30;93.40;;;;;;5039849;28;20232;-82
2021/01/14 05:06:44;;;;;;;87.10;43.70;;;0.30;93.40;;;;;;5039941;28;20456;-81
2021/01/14 05:09:18;;;;;;;84.93;43.87;;;0.30;93.40;;;;;;5032128;28;20331;-82
2021/01/14 05:11:55;;;;;;;88.80;44.40;;;0.30;93.40;;;;;;5043793;28;20227;-82
2021/01/14 05:14:24;;;;;;;83.20;42.67;;;0.30;93.40;;;;;;5053135;28;20239;-83
2021/01/14 05:16:53;;;;;;;81.97;41.03;;;0.30;93.40;;;;;;5043263;28;20426;-82
2021/01/14 05:19:20;;;;;;;85.70;43.00;;;0.30;93.50;;;;;;5048616;28;20235;-82
2021/01/14 05:21:49;;;;;;;81.53;41.97;;;0.20;93.40;;;;;;5051259;28;20267;-84
2021/01/14 05:24:17;;;;;;;78.07;39.00;;;0.20;93.40;;;;;;5048318;28;20198;-81
2021/01/14 05:26:45;;;;;;;81.53;42.73;;;0.10;93.40;;;;;;5054611;28;20227;-83
2021/01/14 05:29:15;;;;;;;92.00;42.33;;;0.20;93.40;;;;;;5052694;28;20212;-82
2021/01/14 05:31:45;;;;;;;83.47;41.77;;;0.20;93.40;;;;;;5053989;28;20223;-82
2021/01/14 05:34:14;;;;;;;81.17;39.20;;;0.20;93.40;;;;;;5051714;28;20227;-82
2021/01/14 05:36:55;;;;;;;83.00;40.80;;;0.20;93.40;;;;;;5048273;28;20729;-82
2021/01/14 05:39:24;;;;;;;78.80;38.47;;;0.30;93.40;;;;;;5036090;28;20263;-83
2021/01/14 05:41:52;;;;;;;76.27;38.17;;;0.30;93.40;;;;;;5043491;28;20215;-82
2021/01/14 05:44:35;;;;;;;83.63;39.83;;;0.30;93.40;;;;;;5038861;28;20632;-82
2021/01/14 05:47:21;;;;;;;79.83;37.93;;;0.30;93.40;;;;;;5037172;28;20213;-83
2021/01/14 05:49:59;;;;;;;79.83;37.27;;;0.30;93.40;;;;;;5042208;28;20205;-81
2021/01/14 05:52:28;;;;;;;83.97;38.83;;;0.30;93.40;;;;;;5047346;28;20253;-82
2021/01/14 05:55:07;;;;;;;86.17;39.63;;;0.30;93.40;;;;;;5045102;28;20764;-81
2021/01/14 05:57:38;;;;;;;81.40;37.77;;;0.40;93.40;;;;;;5038825;28;20224;-81
2021/01/14 06:00:11;;;;;;;79.10;37.03;;;0.40;93.40;;;;;;5046795;28;20402;-82
2021/01/14 06:02:40;;;;;;;74.17;35.83;;;0.40;93.40;;;;;;5045964;28;20205;-82
2021/01/14 06:05:26;;;;;;;71.90;36.23;;;0.40;93.40;;;;;;5057698;28;20273;-80
2021/01/14 06:07:55;;;;;;;79.97;37.63;;;0.30;93.40;;;;;;5057343;28;20194;-83
2021/01/14 06:10:32;;;;;;;77.07;36.70;;;0.30;93.40;;;;;;5057878;28;20212;-80
2021/01/14 06:13:00;;;;;;;74.77;36.77;;;0.30;93.40;;;;;;5058127;28;20283;-83
2021/01/14 06:15:28;;;;;;;74.77;36.13;;;0.30;93.40;;;;;;5038663;28;20462;-81
2021/01/14 06:18:07;;;;;;;78.60;36.70;;;0.30;93.40;;;;;;5043476;28;20209;-81
2021/01/14 06:20:49;;;;;;;71.60;35.60;;;0.20;93.40;;;;;;5046014;28;20222;-81
2021/01/14 06:23:18;;;;;;;72.50;34.40;;;0.20;93.30;;;;;;5050405;28;20229;-80
2021/01/14 06:25:51;;;;;;;73.40;34.20;;;0.20;93.30;;;;;;5039750;28;20253;-81
2021/01/14 06:28:20;;;;;;;74.97;34.60;;;0.20;93.30;;;;;;5038289;28;20695;-80
2021/01/14 06:30:57;;;;;;;69.57;32.77;;;0.10;93.30;;;;;;5044847;28;20205;-81
2021/01/14 06:33:26;;;;;;;61.90;30.63;;;0.10;93.30;;;;;;5041770;28;20271;-81
2021/01/14 06:36:08;;;;;;;66.83;31.93;;;0.10;93.30;;;;;;5044383;28;20196;-81
2021/01/14 06:38:47;;;;;;;60.63;28.20;;;0.10;93.20;;;;;;5044162;28;20218;-81
2021/01/14 06:41:19;;;;;;;65.80;32.67;;;0.10;93.20;;;;;;5048523;28;20229;-81
2021/01/14 06:43:49;;;;;;;64.63;29.87;;;0.00;93.20;;;;;;5053778;28;20269;-81
2021/01/14 06:46:19;;;;;;;58.33;30.07;;;0.00;93.20;;;;;;5046547;28;20207;-81
2021/01/14 06:49:04;;;;;;;65.37;31.00;;;0.00;93.20;;;;;;5059502;28;20209;-80
2021/01/14 06:52:04;;;;;;;63.70;30.43;;;0.00;93.20;;;;;;5055521;28;20539;-81
2021/01/14 06:54:38;;;;;;;63.20;31.17;;;-0.10;93.10;;;;;;5043860;28;20225;-81
2021/01/14 06:57:14;;;;;;;70.07;31.03;;;-0.20;93.10;;;;;;5041556;28;20289;-80
2021/01/14 06:59:43;;;;;;;70.03;32.57;;;-0.30;93.00;;;;;;5055536;28;20218;-81
2021/01/14 07:02:52;;;;;;;66.30;31.93;;;-0.30;93.10;;;;;;5056596;28;20272;-81
2021/01/14 07:05:34;;;;;;;67.13;31.43;;;-0.30;93.10;;;;;;5044664;28;20216;-80
2021/01/14 07:08:28;;;;;;;58.83;25.67;;;-0.30;93.10;;;;;;5038412;28;20204;-80
2021/01/14 07:11:02;;;;;;;65.13;31.37;;;-0.30;93.10;;;;;;5043334;28;20206;-81
2021/01/14 07:13:34;;;;;;;59.63;30.00;;;-0.20;93.20;;;;;;5042636;28;20228;-80
2021/01/14 07:16:02;;;;;;;58.10;28.60;;;-0.20;93.20;;;;;;5030992;28;20621;-80
2021/01/14 07:18:31;;;;;;;60.60;28.63;;;-0.20;93.20;;;;;;5022131;28;20213;-80
2021/01/14 07:21:05;;;;;;;63.00;28.80;;;0.00;93.20;;;;;;5031436;28;22740;-80
2021/01/14 07:23:39;;;;;;;66.77;29.53;;;0.10;93.20;;;;;;5024011;28;20548;-79
2021/01/14 07:26:07;;;;;;;56.50;27.50;;;0.30;93.30;;;;;;5029441;28;20271;-79
2021/01/14 07:28:36;;;;;;;57.13;26.67;;;0.20;93.20;;;;;;5020714;28;20563;-77
2021/01/14 07:31:19;;;;;;;59.10;27.30;;;0.20;93.10;;;;;;5024266;28;20392;-80
2021/01/14 07:33:47;;;;;;;56.60;27.43;;;0.20;92.70;;;;;;5050020;28;20231;-79
2021/01/14 07:36:21;;;;;;;51.57;27.33;;;0.10;92.50;;;;;;5037582;28;20206;-81
2021/01/14 07:38:51;;;;;;;55.13;27.17;;;0.20;92.50;;;;;;5043384;28;20764;-81
2021/01/14 07:41:19;;;;;;;50.13;25.63;;;0.20;92.40;;;;;;5027981;28;20629;-81
2021/01/14 07:43:46;;;;;;;55.10;26.93;;;0.20;92.40;;;;;;5028274;28;20302;-80
2021/01/14 07:46:20;;;;;;;50.07;25.97;;;0.20;92.30;;;;;;5023536;28;20304;-83
2021/01/14 07:48:49;;;;;;;46.13;21.53;;;0.10;92.20;;;;;;5021374;28;20202;-78
2021/01/14 07:51:19;;;;;;;46.93;23.97;;;0.10;92.20;;;;;;5025815;28;20477;-81
2021/01/14 07:54:06;;;;;;;43.73;22.50;;;0.20;92.00;;;;;;5021560;28;20255;-80
2021/01/14 07:56:48;;;;;;;36.53;17.53;;;0.20;91.70;;;;;;5016458;28;20229;-80
2021/01/14 07:59:27;;;;;;;44.50;24.33;;;0.30;91.60;;;;;;5021798;28;20833;-80
2021/01/14 08:02:04;;;;;;;45.83;23.57;;;0.30;91.50;;;;;;5023392;28;20302;-80
2021/01/14 08:04:31;;;;;;;45.97;23.60;;;0.20;91.50;;;;;;5020631;28;20766;-81
2021/01/14 08:07:20;;;;;;;50.37;24.53;;;0.30;91.60;;;;;;5017799;28;20213;-79
2021/01/14 08:09:49;;;;;;;49.67;23.80;;;0.30;91.60;;;;;;5019567;28;20232;-80
2021/01/14 08:12:16;;;;;;;48.40;23.93;;;0.30;91.60;;;;;;5025035;28;20438;-79
2021/01/14 08:14:44;;;;;;;50.37;24.50;;;0.40;91.70;;;;;;5018945;28;20859;-80
2021/01/14 08:17:23;;;;;;;46.70;25.30;;;0.40;91.60;;;;;;5018193;28;20248;-82
2021/01/14 08:19:51;;;;;;;49.83;25.10;;;0.40;91.70;;;;;;5019467;28;21105;-81
2021/01/14 08:22:21;;;;;;;52.17;26.10;;;0.40;91.70;;;;;;5033667;28;20709;-81
2021/01/14 08:24:51;;;;;;;36.77;18.63;;;0.40;91.60;;;;;;5028263;28;20313;-81
2021/01/14 08:27:30;;;;;;;52.30;25.87;;;0.40;91.80;;;;;;5017166;28;20206;-80
2021/01/14 08:30:03;;;;;;;51.17;24.60;;;0.40;91.70;;;;;;5019973;28;20578;-80
2021/01/14 08:32:39;;;;;;;48.63;23.27;;;0.30;91.80;;;;;;5014027;28;20204;-82
2021/01/14 08:35:29;;;;;;;51.63;23.90;;;0.40;92.00;;;;;;5010541;28;20584;-79
2021/01/14 08:38:00;;;;;;;46.70;22.80;;;0.30;92.00;;;;;;5017480;28;20235;-83
2021/01/14 08:40:30;;;;;;;43.20;20.47;;;0.30;92.10;;;;;;5022248;28;20795;-82
2021/01/14 08:43:07;;;;;;;44.30;19.87;;;0.30;91.90;;;;;;5043031;28;20205;-80
2021/01/14 08:45:37;;;;;;;35.57;17.43;;;0.20;91.70;;;;;;5014254;28;20209;-80
2021/01/14 08:48:09;;;;;;;34.40;18.57;;;0.20;91.80;;;;;;5015337;28;20219;-78
2021/01/14 08:50:43;;;;;;;37.57;19.07;;;0.10;91.80;;;;;;5030874;28;20415;-81
2021/01/14 08:53:13;;;;;;;41.13;20.03;;;0.10;91.80;;;;;;5022074;28;20235;-80
2021/01/14 08:55:41;;;;;;;40.17;19.67;;;0.20;91.80;;;;;;5016156;28;20746;-79
2021/01/14 08:58:08;;;;;;;43.83;21.57;;;0.30;92.00;;;;;;5015599;28;20704;-80
2021/01/14 09:00:37;;;;;;;42.77;22.40;;;0.40;92.00;;;;;;5026127;28;20236;-81
2021/01/14 09:03:06;;;;;;;45.40;22.63;;;0.50;92.00;;;;;;5034324;28;20463;-79
2021/01/14 09:05:43;;;;;;;42.63;21.20;;;0.60;92.00;;;;;;5039214;28;20228;-80
2021/01/14 09:08:13;;;;;;;34.07;17.27;;;0.70;92.00;;;;;;5025732;28;20205;-80
2021/01/14 09:10:49;;;;;;;47.47;23.07;;;0.80;91.70;;;;;;5013994;28;20647;-82
2021/01/14 09:13:19;;;;;;;38.97;19.33;;;0.80;91.40;;;;;;5020659;28;20440;-81
2021/01/14 09:15:49;;;;;;;36.10;19.87;;;0.70;91.30;;;;;;5009688;28;20236;-80
2021/01/14 09:18:18;;;;;;;40.87;19.37;;;0.60;91.20;;;;;;5017304;28;20276;-80
2021/01/14 09:20:53;;;;;;;34.00;19.80;;;0.50;91.40;;;;;;5025748;28;20441;-81
2021/01/14 09:23:24;;;;;;;40.23;19.43;;;0.50;91.40;;;;;;5020047;28;20287;-80
2021/01/14 09:25:53;;;;;;;41.40;20.53;;;0.50;91.20;;;;;;5013328;28;20205;-80
2021/01/14 09:28:23;;;;;;;40.90;20.93;;;0.50;91.40;;;;;;5016785;28;20197;-80
2021/01/14 09:30:56;;;;;;;42.57;20.40;;;0.60;91.50;;;;;;5032561;28;20221;-80
2021/01/14 09:33:25;;;;;;;37.07;18.67;;;0.70;91.50;;;;;;5019223;28;20237;-80
2021/01/14 09:36:02;;;;;;;37.70;20.30;;;0.60;91.10;;;;;;5012278;28;20198;-80
2021/01/14 09:38:38;;;;;;;40.47;20.67;;;0.50;91.20;;;;;;5015735;28;20194;-79
2021/01/14 09:41:07;;;;;;;41.43;21.30;;;0.40;91.40;;;;;;5011974;28;20594;-81
2021/01/14 09:43:38;;;;;;;40.50;20.00;;;0.40;91.50;;;;;;5016032;28;20206;-84
2021/01/14 09:46:10;;;;;;;44.23;21.33;;;0.50;91.60;;;;;;5013879;28;21201;-79
2021/01/14 09:48:38;;;;;;;45.17;21.43;;;0.50;91.60;;;;;;5015130;28;20197;-81
2021/01/14 09:51:12;;;;;;;40.07;20.93;;;0.50;91.60;;;;;;5013885;28;20205;-81
2021/01/14 09:53:46;;;;;;;44.90;21.67;;;0.60;91.80;;;;;;5014789;28;20233;-80
2021/01/14 09:56:21;;;;;;;40.40;20.73;;;0.70;91.70;;;;;;5013414;28;20671;-78
2021/01/14 09:58:56;;;;;;;38.57;19.33;;;0.70;91.10;;;;;;5011182;28;20739;-79
2021/01/14 10:01:33;;;;;;;38.73;19.33;;;0.60;91.00;;;;;;5014818;28;20215;-78
2021/01/14 10:04:09;;;;;;;36.57;20.43;;;0.70;91.30;;;;;;5013283;28;20235;-78
2021/01/14 10:06:42;;;;;;;40.37;19.63;;;0.70;91.00;;;;;;5021179;28;20205;-79
2021/01/14 10:09:11;;;;;;;36.27;19.53;;;0.90;91.00;;;;;;5013568;28;20210;-79
2021/01/14 10:11:39;;;;;;;35.80;15.03;;;0.90;91.00;;;;;;5021052;28;20202;-78
2021/01/14 10:14:15;;;;;;;36.57;18.53;;;1.00;90.80;;;;;;5024728;28;20237;-79
2021/01/14 10:16:43;;;;;;;37.30;18.70;;;1.00;90.70;;;;;;5028997;28;20289;-79
2021/01/14 10:19:15;;;;;;;34.37;17.40;;;1.10;90.40;;;;;;5020329;28;20377;-78
2021/01/14 10:21:45;;;;;;;33.00;17.20;;;1.00;90.00;;;;;;5023719;28;20272;-79
2021/01/14 10:24:22;;;;;;;29.83;16.37;;;1.00;90.40;;;;;;5024682;28;20888;-78
2021/01/14 10:26:50;;;;;;;36.67;17.83;;;1.00;90.40;;;;;;5023288;28;20760;-79
2021/01/14 10:29:38;;;;;;;34.57;18.03;;;1.10;90.50;;;;;;5038930;28;20594;-76
2021/01/14 10:32:08;;;;;;;36.37;19.70;;;1.00;90.40;;;;;;5033989;28;20398;-77
2021/01/14 10:34:40;;;;;;;34.37;18.67;;;1.20;90.40;;;;;;5010928;28;20226;-78
2021/01/14 10:37:21;;;;;;;32.53;18.10;;;1.20;90.50;;;;;;5006408;28;20234;-79
2021/01/14 10:39:51;;;;;;;32.13;17.13;;;1.20;90.40;;;;;;5008758;28;20202;-78
2021/01/14 10:42:27;;;;;;;30.17;17.37;;;1.30;90.20;;;;;;5016684;28;20202;-79
2021/01/14 10:44:55;;;;;;;34.37;17.53;;;1.30;90.00;;;;;;5016294;28;20280;-76
2021/01/14 10:47:23;;;;;;;27.03;14.17;;;1.30;90.20;;;;;;5011551;28;20293;-79
2021/01/14 10:49:50;;;;;;;30.50;17.90;;;1.30;90.00;;;;;;5021474;28;20212;-79
2021/01/14 10:52:18;;;;;;;29.60;14.20;;;1.20;90.00;;;;;;5019061;28;20287;-79
2021/01/14 10:54:59;;;;;;;32.17;17.10;;;1.30;90.30;;;;;;5027545;28;20226;-78
2021/01/14 10:57:49;;;;;;;27.60;15.63;;;1.30;90.00;;;;;;5028143;28;20212;-81
2021/01/14 11:00:19;;;;;;;28.20;17.23;;;1.20;90.10;;;;;;5024109;28;20281;-83
2021/01/14 11:02:47;;;;;;;17.13;12.10;;;1.10;90.10;;;;;;5024487;28;20225;-78
2021/01/14 11:05:15;;;;;;;19.77;11.30;;;1.00;89.50;;;;;;5019133;28;20198;-80
2021/01/14 11:07:43;;;;;;;23.10;13.90;;;0.80;90.10;;;;;;5028669;28;20206;-80
2021/01/14 11:10:13;;;;;;;27.97;15.00;;;0.80;90.20;;;;;;5021249;28;20213;-79
2021/01/14 11:13:03;;;;;;;24.10;12.47;;;0.60;90.60;;;;;;5022273;28;20730;-80
2021/01/14 11:15:31;;;;;;;29.13;15.83;;;0.60;90.80;;;;;;5017216;28;20225;-81
2021/01/14 11:18:04;;;;;;;20.00;11.40;;;0.60;90.90;;;;;;5022878;28;20229;-77
2021/01/14 11:20:32;;;;;;;21.50;11.67;;;0.60;90.50;;;;;;5027721;28;20202;-79
2021/01/14 11:23:01;;;;;;;21.03;13.30;;;0.60;90.20;;;;;;5017481;28;20232;-81
2021/01/14 11:25:30;;;;;;;23.40;14.07;;;0.70;89.60;;;;;;5010434;28;20376;-80
2021/01/14 11:27:59;;;;;;;14.23;8.67;;;0.70;89.30;;;;;;5013236;28;20198;-78
2021/01/14 11:30:27;;;;;;;18.83;11.63;;;0.70;88.10;;;;;;5018364;28;20202;-80
2021/01/14 11:32:54;;;;;;;22.57;12.40;;;0.70;87.80;;;;;;5019083;28;20194;-80
2021/01/14 11:35:23;;;;;;;18.93;12.03;;;0.70;87.90;;;;;;5026863;28;20418;-80
2021/01/14 11:37:51;;;;;;;20.40;12.10;;;0.60;88.10;;;;;;5025816;28;20204;-79
2021/01/14 11:40:19;;;;;;;22.63;13.77;;;0.70;88.10;;;;;;5042794;28;20295;-79
2021/01/14 11:42:51;;;;;;;18.93;12.50;;;0.60;87.90;;;;;;5035369;28;20263;-77
2021/01/14 11:45:18;;;;;;;19.50;11.50;;;0.60;88.60;;;;;;5026190;28;20401;-82
2021/01/14 11:47:47;;;;;;;24.03;14.27;;;0.40;88.20;;;;;;5021851;28;20303;-80
2021/01/14 11:50:15;;;;;;;16.87;10.30;;;0.40;88.60;;;;;;5027476;28;20274;-80
2021/01/14 11:52:43;;;;;;;24.90;14.63;;;0.30;88.30;;;;;;5028054;28;20191;-77
2021/01/14 11:55:11;;;;;;;25.53;15.53;;;0.40;88.60;;;;;;5043635;28;20210;-79
2021/01/14 11:57:39;;;;;;;26.87;15.43;;;0.40;87.90;;;;;;5038739;28;20289;-80
2021/01/14 12:00:10;;;;;;;21.70;12.63;;;0.30;88.40;;;;;;5042218;28;20208;-81
2021/01/14 12:02:41;;;;;;;27.20;15.80;;;0.50;88.40;;;;;;5031018;28;20415;-80
2021/01/14 12:05:10;;;;;;;29.33;15.63;;;0.50;88.70;;;;;;5023328;28;20202;-79
2021/01/14 12:08:20;;;;;;;25.93;16.00;;;0.50;88.00;;;;;;5050366;27;21416;-80
2021/01/14 12:10:48;;;;;;;25.73;15.33;;;0.40;88.10;;;;;;5037347;28;20405;-78
2021/01/14 12:13:16;;;;;;;18.90;10.97;;;0.30;88.20;;;;;;5037539;28;20718;-79
2021/01/14 12:15:44;;;;;;;28.93;16.03;;;0.30;87.70;;;;;;5031846;28;20318;-81
2021/01/14 12:18:12;;;;;;;20.17;12.10;;;0.30;88.30;;;;;;5038579;28;20220;-78
2021/01/14 12:20:40;;;;;;;27.20;17.13;;;0.10;89.00;;;;;;5046102;28;21032;-79
2021/01/14 12:23:07;;;;;;;31.73;17.70;;;0.10;89.80;;;;;;5048545;28;20207;-78
2021/01/14 12:25:36;;;;;;;30.93;17.73;;;0.00;89.40;;;;;;5048094;28;20456;-77
2021/01/14 12:28:05;;;;;;;30.10;17.50;;;0.00;89.10;;;;;;5056712;28;20268;-81
2021/01/14 12:30:33;;;;;;;33.47;18.67;;;0.00;89.60;;;;;;5062322;28;20200;-81
2021/01/14 12:33:01;;;;;;;29.07;18.03;;;0.10;89.70;;;;;;5064997;28;20583;-78
2021/01/14 12:35:29;;;;;;;33.27;19.17;;;0.00;88.80;;;;;;5048575;28;20229;-78
2021/01/14 12:37:57;;;;;;;31.87;19.43;;;0.00;89.10;;;;;;5049882;28;20576;-79
2021/01/14 12:40:25;;;;;;;33.13;18.97;;;0.10;89.30;;;;;;5063671;28;20183;-80
2021/01/14 12:42:54;;;;;;;35.10;19.77;;;0.10;89.40;;;;;;5063310;28;20685;-79
2021/01/14 12:45:21;;;;;;;37.53;20.00;;;-0.10;88.90;;;;;;5056264;28;20215;-75
2021/01/14 12:47:50;;;;;;;34.23;20.60;;;0.00;89.30;;;;;;5023373;28;20570;-75
2021/01/14 12:50:17;;;;;;;38.77;20.77;;;0.00;89.20;;;;;;5025861;28;20226;-75
2021/01/14 12:52:45;;;;;;;37.47;21.20;;;0.00;89.50;;;;;;5029464;28;20664;-75
2021/01/14 12:55:13;;;;;;;33.70;18.53;;;0.10;89.30;;;;;;5030496;28;20386;-76